sensor_id;sensor_type;location;lat;lon;timestamp;P1;durP1;ratioP1;P2;durP2;ratioP2
25249;SDS011;13201;51.148;13.738;2024-03-02T00:01:09;57.25;;;33.55;;
25249;SDS011;13201;51.148;13.738;2024-03-02T00:03:36;54.88;;;33.13;;
25249;SDS011;13201;51.148;13.738;2024-03-02T00:06:03;62.67;;;34.45;;
25249;SDS011;13201;51.148;13.738;2024-03-02T00:08:29;62.05;;;34.65;;
25249;SDS011;13201;51.148;13.738;2024-03-02T00:10:58;62.72;;;34.03;;
25249;SDS011;13201;51.148;13.738;2024-03-02T00:13:25;59.17;;;33.35;;
25249;SDS011;13201;51.148;13.738;2024-03-02T00:15:54;61.83;;;35.10;;
25249;SDS011;13201;51.148;13.738;2024-03-02T00:18:24;62.05;;;34.03;;
25249;SDS011;13201;51.148;13.738;2024-03-02T00:20:57;60.27;;;34.73;;
25249;SDS011;13201;51.148;13.738;2024-03-02T00:23:24;64.32;;;34.45;;
25249;SDS011;13201;51.148;13.738;2024-03-02T00:25:55;60.70;;;34.22;;
25249;SDS011;13201;51.148;13.738;2024-03-02T00:36:08;62.25;;;35.13;;
25249;SDS011;13201;51.148;13.738;2024-03-02T00:38:44;69.35;;;37.85;;
25249;SDS011;13201;51.148;13.738;2024-03-02T00:41:12;66.35;;;38.70;;
25249;SDS011;13201;51.148;13.738;2024-03-02T00:46:29;71.15;;;40.83;;
25249;SDS011;13201;51.148;13.738;2024-03-02T00:48:58;70.97;;;39.40;;
25249;SDS011;13201;51.148;13.738;2024-03-02T00:51:29;71.13;;;38.88;;
25249;SDS011;13201;51.148;13.738;2024-03-02T00:53:58;71.57;;;38.80;;
25249;SDS011;13201;51.148;13.738;2024-03-02T00:56:26;69.60;;;38.75;;
25249;SDS011;13201;51.148;13.738;2024-03-02T00:58:52;78.33;;;39.40;;
25249;SDS011;13201;51.148;13.738;2024-03-02T01:01:18;64.72;;;38.10;;
25249;SDS011;13201;51.148;13.738;2024-03-02T01:27:50;72.22;;;39.15;;
25249;SDS011;13201;51.148;13.738;2024-03-02T01:30:16;78.65;;;39.92;;
25249;SDS011;13201;51.148;13.738;2024-03-02T01:32:41;69.60;;;39.67;;
25249;SDS011;13201;51.148;13.738;2024-03-02T01:35:07;71.93;;;38.65;;
25249;SDS011;13201;51.148;13.738;2024-03-02T01:37:33;75.15;;;39.38;;
25249;SDS011;13201;51.148;13.738;2024-03-02T01:39:58;68.85;;;38.95;;
25249;SDS011;13201;51.148;13.738;2024-03-02T01:42:24;66.78;;;37.83;;
25249;SDS011;13201;51.148;13.738;2024-03-02T01:44:50;67.05;;;37.17;;
25249;SDS011;13201;51.148;13.738;2024-03-02T01:47:16;65.40;;;37.37;;
25249;SDS011;13201;51.148;13.738;2024-03-02T01:49:42;72.55;;;38.58;;
25249;SDS011;13201;51.148;13.738;2024-03-02T01:52:07;67.97;;;38.83;;
25249;SDS011;13201;51.148;13.738;2024-03-02T01:54:33;66.70;;;38.25;;
25249;SDS011;13201;51.148;13.738;2024-03-02T01:56:59;75.03;;;39.63;;
25249;SDS011;13201;51.148;13.738;2024-03-02T01:59:25;68.63;;;37.55;;
25249;SDS011;13201;51.148;13.738;2024-03-02T02:01:51;64.25;;;37.42;;
25249;SDS011;13201;51.148;13.738;2024-03-02T02:04:16;66.90;;;37.17;;
25249;SDS011;13201;51.148;13.738;2024-03-02T02:06:43;67.43;;;38.35;;
25249;SDS011;13201;51.148;13.738;2024-03-02T02:09:09;70.60;;;37.88;;
25249;SDS011;13201;51.148;13.738;2024-03-02T02:11:35;67.60;;;37.83;;
25249;SDS011;13201;51.148;13.738;2024-03-02T02:14:01;61.97;;;35.65;;
25249;SDS011;13201;51.148;13.738;2024-03-02T02:16:26;56.70;;;33.03;;
25249;SDS011;13201;51.148;13.738;2024-03-02T02:18:52;57.20;;;32.60;;
25249;SDS011;13201;51.148;13.738;2024-03-02T02:21:22;60.40;;;33.35;;
25249;SDS011;13201;51.148;13.738;2024-03-02T02:23:48;60.22;;;34.50;;
25249;SDS011;13201;51.148;13.738;2024-03-02T02:26:13;54.58;;;33.28;;
25249;SDS011;13201;51.148;13.738;2024-03-02T02:28:39;58.95;;;33.60;;
25249;SDS011;13201;51.148;13.738;2024-03-02T02:31:11;63.55;;;34.70;;
25249;SDS011;13201;51.148;13.738;2024-03-02T02:33:39;70.10;;;37.00;;
25249;SDS011;13201;51.148;13.738;2024-03-02T02:36:05;63.33;;;35.90;;
25249;SDS011;13201;51.148;13.738;2024-03-02T02:38:31;61.58;;;35.78;;
25249;SDS011;13201;51.148;13.738;2024-03-02T02:41:01;67.75;;;36.13;;
25249;SDS011;13201;51.148;13.738;2024-03-02T02:43:27;54.88;;;32.58;;
25249;SDS011;13201;51.148;13.738;2024-03-02T02:45:53;60.35;;;32.72;;
25249;SDS011;13201;51.148;13.738;2024-03-02T02:48:18;57.92;;;34.63;;
25249;SDS011;13201;51.148;13.738;2024-03-02T02:50:44;55.72;;;31.63;;
25249;SDS011;13201;51.148;13.738;2024-03-02T02:53:10;47.67;;;29.33;;
25249;SDS011;13201;51.148;13.738;2024-03-02T02:55:35;50.38;;;30.60;;
25249;SDS011;13201;51.148;13.738;2024-03-02T02:58:05;50.90;;;31.33;;
25249;SDS011;13201;51.148;13.738;2024-03-02T03:00:31;52.28;;;31.23;;
25249;SDS011;13201;51.148;13.738;2024-03-02T03:02:57;52.17;;;30.50;;
25249;SDS011;13201;51.148;13.738;2024-03-02T03:05:23;54.05;;;30.30;;
25249;SDS011;13201;51.148;13.738;2024-03-02T03:07:49;50.15;;;30.33;;
25249;SDS011;13201;51.148;13.738;2024-03-02T03:10:15;59.53;;;33.30;;
25249;SDS011;13201;51.148;13.738;2024-03-02T03:12:42;56.22;;;33.22;;
25249;SDS011;13201;51.148;13.738;2024-03-02T03:15:08;60.35;;;33.97;;
25249;SDS011;13201;51.148;13.738;2024-03-02T03:20:02;55.40;;;32.72;;
25249;SDS011;13201;51.148;13.738;2024-03-02T03:24:55;63.35;;;33.28;;
25249;SDS011;13201;51.148;13.738;2024-03-02T03:27:21;59.25;;;34.15;;
25249;SDS011;13201;51.148;13.738;2024-03-02T03:29:46;56.03;;;33.92;;
25249;SDS011;13201;51.148;13.738;2024-03-02T03:32:12;58.67;;;34.53;;
25249;SDS011;13201;51.148;13.738;2024-03-02T03:34:38;58.58;;;34.70;;
25249;SDS011;13201;51.148;13.738;2024-03-02T03:37:04;57.08;;;34.60;;
25249;SDS011;13201;51.148;13.738;2024-03-02T03:39:29;62.78;;;35.35;;
25249;SDS011;13201;51.148;13.738;2024-03-02T03:41:55;59.58;;;34.25;;
25249;SDS011;13201;51.148;13.738;2024-03-02T03:44:21;54.00;;;33.25;;
25249;SDS011;13201;51.148;13.738;2024-03-02T03:46:46;64.57;;;34.20;;
25249;SDS011;13201;51.148;13.738;2024-03-02T03:49:12;60.25;;;33.85;;
25249;SDS011;13201;51.148;13.738;2024-03-02T03:51:38;55.97;;;31.35;;
25249;SDS011;13201;51.148;13.738;2024-03-02T03:54:03;52.28;;;30.33;;
25249;SDS011;13201;51.148;13.738;2024-03-02T03:56:29;51.13;;;30.00;;
25249;SDS011;13201;51.148;13.738;2024-03-02T03:58:55;55.03;;;31.92;;
25249;SDS011;13201;51.148;13.738;2024-03-02T04:01:20;58.13;;;31.23;;
25249;SDS011;13201;51.148;13.738;2024-03-02T04:03:47;56.80;;;32.88;;
25249;SDS011;13201;51.148;13.738;2024-03-02T04:06:13;61.28;;;34.20;;
25249;SDS011;13201;51.148;13.738;2024-03-02T04:08:39;56.40;;;32.17;;
25249;SDS011;13201;51.148;13.738;2024-03-02T04:11:06;57.00;;;33.13;;
25249;SDS011;13201;51.148;13.738;2024-03-02T04:13:33;57.60;;;32.60;;
25249;SDS011;13201;51.148;13.738;2024-03-02T04:15:58;61.75;;;34.70;;
25249;SDS011;13201;51.148;13.738;2024-03-02T04:18:24;61.13;;;33.42;;
25249;SDS011;13201;51.148;13.738;2024-03-02T04:20:50;62.88;;;33.97;;
25249;SDS011;13201;51.148;13.738;2024-03-02T04:23:15;62.22;;;34.80;;
25249;SDS011;13201;51.148;13.738;2024-03-02T04:25:41;64.45;;;35.40;;
25249;SDS011;13201;51.148;13.738;2024-03-02T04:28:07;56.92;;;33.60;;
25249;SDS011;13201;51.148;13.738;2024-03-02T04:30:32;55.05;;;31.10;;
25249;SDS011;13201;51.148;13.738;2024-03-02T04:32:58;58.00;;;32.13;;
25249;SDS011;13201;51.148;13.738;2024-03-02T04:35:24;54.92;;;32.35;;
25249;SDS011;13201;51.148;13.738;2024-03-02T04:37:50;59.20;;;33.03;;
25249;SDS011;13201;51.148;13.738;2024-03-02T04:40:16;53.97;;;31.63;;
25249;SDS011;13201;51.148;13.738;2024-03-02T04:42:42;55.15;;;31.52;;
25249;SDS011;13201;51.148;13.738;2024-03-02T04:45:08;57.03;;;31.45;;
25249;SDS011;13201;51.148;13.738;2024-03-02T04:47:33;58.05;;;33.30;;
25249;SDS011;13201;51.148;13.738;2024-03-02T04:49:59;59.70;;;31.98;;
25249;SDS011;13201;51.148;13.738;2024-03-02T04:52:25;55.85;;;31.80;;
25249;SDS011;13201;51.148;13.738;2024-03-02T04:54:51;57.50;;;32.45;;
25249;SDS011;13201;51.148;13.738;2024-03-02T04:57:35;59.08;;;32.70;;
25249;SDS011;13201;51.148;13.738;2024-03-02T05:00:00;58.65;;;34.13;;
25249;SDS011;13201;51.148;13.738;2024-03-02T05:02:26;56.25;;;31.70;;
25249;SDS011;13201;51.148;13.738;2024-03-02T05:04:52;59.28;;;32.65;;
25249;SDS011;13201;51.148;13.738;2024-03-02T05:07:17;58.05;;;32.05;;
25249;SDS011;13201;51.148;13.738;2024-03-02T05:09:43;56.20;;;32.40;;
25249;SDS011;13201;51.148;13.738;2024-03-02T05:12:10;54.17;;;31.70;;
25249;SDS011;13201;51.148;13.738;2024-03-02T05:14:54;55.45;;;30.75;;
25249;SDS011;13201;51.148;13.738;2024-03-02T05:17:21;53.03;;;29.75;;
25249;SDS011;13201;51.148;13.738;2024-03-02T05:19:46;49.90;;;28.60;;
25249;SDS011;13201;51.148;13.738;2024-03-02T05:22:13;49.27;;;29.00;;
25249;SDS011;13201;51.148;13.738;2024-03-02T05:24:38;47.33;;;27.92;;
25249;SDS011;13201;51.148;13.738;2024-03-02T05:27:04;50.83;;;27.88;;
25249;SDS011;13201;51.148;13.738;2024-03-02T05:31:56;46.90;;;27.00;;
25249;SDS011;13201;51.148;13.738;2024-03-02T05:34:22;51.20;;;28.33;;
25249;SDS011;13201;51.148;13.738;2024-03-02T05:36:48;49.85;;;28.65;;
25249;SDS011;13201;51.148;13.738;2024-03-02T05:39:13;49.10;;;28.55;;
25249;SDS011;13201;51.148;13.738;2024-03-02T05:41:39;56.58;;;29.80;;
25249;SDS011;13201;51.148;13.738;2024-03-02T05:44:05;54.83;;;31.33;;
25249;SDS011;13201;51.148;13.738;2024-03-02T05:46:30;51.08;;;30.88;;
25249;SDS011;13201;51.148;13.738;2024-03-02T05:48:56;51.70;;;29.85;;
25249;SDS011;13201;51.148;13.738;2024-03-02T05:51:22;54.65;;;30.70;;
25249;SDS011;13201;51.148;13.738;2024-03-02T05:53:48;52.90;;;30.58;;
25249;SDS011;13201;51.148;13.738;2024-03-02T05:56:13;51.95;;;29.90;;
25249;SDS011;13201;51.148;13.738;2024-03-02T05:58:40;56.92;;;31.10;;
25249;SDS011;13201;51.148;13.738;2024-03-02T06:01:11;54.15;;;29.92;;
25249;SDS011;13201;51.148;13.738;2024-03-02T06:03:37;51.65;;;30.48;;
25249;SDS011;13201;51.148;13.738;2024-03-02T06:06:03;52.55;;;30.02;;
25249;SDS011;13201;51.148;13.738;2024-03-02T06:08:29;54.63;;;31.10;;
25249;SDS011;13201;51.148;13.738;2024-03-02T06:10:54;56.65;;;30.67;;
25249;SDS011;13201;51.148;13.738;2024-03-02T06:13:21;61.47;;;31.45;;
25249;SDS011;13201;51.148;13.738;2024-03-02T06:15:47;66.28;;;32.08;;
25249;SDS011;13201;51.148;13.738;2024-03-02T06:18:12;72.43;;;34.72;;
25249;SDS011;13201;51.148;13.738;2024-03-02T06:20:38;64.97;;;32.97;;
25249;SDS011;13201;51.148;13.738;2024-03-02T06:23:04;67.60;;;33.03;;
25249;SDS011;13201;51.148;13.738;2024-03-02T06:25:30;66.43;;;31.87;;
25249;SDS011;13201;51.148;13.738;2024-03-02T06:27:56;66.00;;;32.08;;
25249;SDS011;13201;51.148;13.738;2024-03-02T06:30:21;67.50;;;33.15;;
25249;SDS011;13201;51.148;13.738;2024-03-02T06:32:47;67.38;;;32.50;;
25249;SDS011;13201;51.148;13.738;2024-03-02T06:35:12;64.75;;;32.40;;
25249;SDS011;13201;51.148;13.738;2024-03-02T06:37:38;63.97;;;33.38;;
25249;SDS011;13201;51.148;13.738;2024-03-02T06:40:05;65.50;;;32.67;;
25249;SDS011;13201;51.148;13.738;2024-03-02T06:42:33;62.83;;;30.98;;
25249;SDS011;13201;51.148;13.738;2024-03-02T06:44:59;65.68;;;31.52;;
25249;SDS011;13201;51.148;13.738;2024-03-02T06:47:25;68.90;;;32.85;;
25249;SDS011;13201;51.148;13.738;2024-03-02T06:49:50;66.28;;;32.90;;
25249;SDS011;13201;51.148;13.738;2024-03-02T06:52:16;65.30;;;32.28;;
25249;SDS011;13201;51.148;13.738;2024-03-02T06:54:42;65.85;;;32.42;;
25249;SDS011;13201;51.148;13.738;2024-03-02T06:57:07;66.40;;;32.95;;
25249;SDS011;13201;51.148;13.738;2024-03-02T06:59:33;65.03;;;32.35;;
25249;SDS011;13201;51.148;13.738;2024-03-02T07:01:59;66.32;;;33.17;;
25249;SDS011;13201;51.148;13.738;2024-03-02T07:04:25;68.80;;;33.28;;
25249;SDS011;13201;51.148;13.738;2024-03-02T07:06:50;64.88;;;33.00;;
25249;SDS011;13201;51.148;13.738;2024-03-02T07:09:16;65.95;;;32.88;;
25249;SDS011;13201;51.148;13.738;2024-03-02T07:11:42;67.07;;;32.70;;
25249;SDS011;13201;51.148;13.738;2024-03-02T07:14:08;65.82;;;33.38;;
25249;SDS011;13201;51.148;13.738;2024-03-02T07:16:34;72.68;;;35.28;;
25249;SDS011;13201;51.148;13.738;2024-03-02T07:19:03;67.25;;;35.17;;
25249;SDS011;13201;51.148;13.738;2024-03-02T07:21:28;68.68;;;32.70;;
25249;SDS011;13201;51.148;13.738;2024-03-02T07:23:54;66.45;;;33.92;;
25249;SDS011;13201;51.148;13.738;2024-03-02T07:26:20;64.13;;;31.85;;
25249;SDS011;13201;51.148;13.738;2024-03-02T07:28:46;67.90;;;33.63;;
25249;SDS011;13201;51.148;13.738;2024-03-02T07:31:14;65.97;;;32.70;;
25249;SDS011;13201;51.148;13.738;2024-03-02T07:33:40;62.65;;;32.28;;
25249;SDS011;13201;51.148;13.738;2024-03-02T07:36:07;64.70;;;31.67;;
25249;SDS011;13201;51.148;13.738;2024-03-02T07:38:33;64.40;;;31.60;;
25249;SDS011;13201;51.148;13.738;2024-03-02T07:41:00;65.53;;;31.67;;
25249;SDS011;13201;51.148;13.738;2024-03-02T07:43:26;62.63;;;31.40;;
25249;SDS011;13201;51.148;13.738;2024-03-02T07:45:52;63.28;;;32.10;;
25249;SDS011;13201;51.148;13.738;2024-03-02T07:48:17;84.10;;;44.47;;
25249;SDS011;13201;51.148;13.738;2024-03-02T07:50:43;63.22;;;32.30;;
25249;SDS011;13201;51.148;13.738;2024-03-02T07:53:09;65.75;;;33.10;;
25249;SDS011;13201;51.148;13.738;2024-03-02T07:55:35;63.35;;;32.70;;
25249;SDS011;13201;51.148;13.738;2024-03-02T07:58:01;62.40;;;31.52;;
25249;SDS011;13201;51.148;13.738;2024-03-02T08:00:27;62.30;;;30.70;;
25249;SDS011;13201;51.148;13.738;2024-03-02T08:02:53;69.30;;;31.38;;
25249;SDS011;13201;51.148;13.738;2024-03-02T08:05:20;62.83;;;31.75;;
25249;SDS011;13201;51.148;13.738;2024-03-02T08:07:46;61.45;;;30.67;;
25249;SDS011;13201;51.148;13.738;2024-03-02T08:10:12;62.13;;;32.80;;
25249;SDS011;13201;51.148;13.738;2024-03-02T08:12:38;60.35;;;33.10;;
25249;SDS011;13201;51.148;13.738;2024-03-02T08:15:04;64.10;;;31.60;;
25249;SDS011;13201;51.148;13.738;2024-03-02T08:17:30;66.20;;;31.70;;
25249;SDS011;13201;51.148;13.738;2024-03-02T08:19:56;63.88;;;29.90;;
25249;SDS011;13201;51.148;13.738;2024-03-02T08:22:22;61.27;;;30.17;;
25249;SDS011;13201;51.148;13.738;2024-03-02T08:24:50;65.15;;;31.05;;
25249;SDS011;13201;51.148;13.738;2024-03-02T08:27:16;57.77;;;29.73;;
25249;SDS011;13201;51.148;13.738;2024-03-02T08:29:42;59.78;;;29.88;;
25249;SDS011;13201;51.148;13.738;2024-03-02T08:32:07;56.83;;;28.23;;
25249;SDS011;13201;51.148;13.738;2024-03-02T08:34:33;54.17;;;27.20;;
25249;SDS011;13201;51.148;13.738;2024-03-02T08:37:00;50.20;;;25.55;;
25249;SDS011;13201;51.148;13.738;2024-03-02T08:39:27;49.28;;;26.10;;
25249;SDS011;13201;51.148;13.738;2024-03-02T08:41:53;53.67;;;27.60;;
25249;SDS011;13201;51.148;13.738;2024-03-02T08:44:19;48.90;;;26.67;;
25249;SDS011;13201;51.148;13.738;2024-03-02T08:46:45;52.70;;;27.73;;
25249;SDS011;13201;51.148;13.738;2024-03-02T08:49:11;53.03;;;27.27;;
25249;SDS011;13201;51.148;13.738;2024-03-02T08:51:37;48.93;;;24.97;;
25249;SDS011;13201;51.148;13.738;2024-03-02T08:54:03;54.80;;;29.00;;
25249;SDS011;13201;51.148;13.738;2024-03-02T08:56:29;58.90;;;30.83;;
25249;SDS011;13201;51.148;13.738;2024-03-02T08:58:56;84.38;;;48.95;;
25249;SDS011;13201;51.148;13.738;2024-03-02T09:01:21;77.35;;;46.20;;
25249;SDS011;13201;51.148;13.738;2024-03-02T09:03:47;57.58;;;33.83;;
25249;SDS011;13201;51.148;13.738;2024-03-02T09:06:14;54.75;;;30.85;;
25249;SDS011;13201;51.148;13.738;2024-03-02T09:08:45;51.80;;;29.42;;
25249;SDS011;13201;51.148;13.738;2024-03-02T09:11:11;43.58;;;22.83;;
25249;SDS011;13201;51.148;13.738;2024-03-02T09:13:37;39.75;;;21.85;;
25249;SDS011;13201;51.148;13.738;2024-03-02T09:16:03;39.78;;;21.50;;
25249;SDS011;13201;51.148;13.738;2024-03-02T09:18:30;39.88;;;20.17;;
25249;SDS011;13201;51.148;13.738;2024-03-02T09:20:56;34.97;;;19.08;;
25249;SDS011;13201;51.148;13.738;2024-03-02T09:23:21;31.88;;;18.10;;
25249;SDS011;13201;51.148;13.738;2024-03-02T09:25:47;33.08;;;17.63;;
25249;SDS011;13201;51.148;13.738;2024-03-02T09:28:13;35.53;;;17.60;;
25249;SDS011;13201;51.148;13.738;2024-03-02T09:30:40;30.92;;;16.65;;
25249;SDS011;13201;51.148;13.738;2024-03-02T09:33:06;28.55;;;16.20;;
25249;SDS011;13201;51.148;13.738;2024-03-02T09:35:32;31.88;;;16.45;;
25249;SDS011;13201;51.148;13.738;2024-03-02T09:37:57;32.05;;;17.75;;
25249;SDS011;13201;51.148;13.738;2024-03-02T09:40:23;28.67;;;16.88;;
25249;SDS011;13201;51.148;13.738;2024-03-02T09:42:49;29.15;;;15.20;;
25249;SDS011;13201;51.148;13.738;2024-03-02T09:45:26;30.42;;;15.35;;
25249;SDS011;13201;51.148;13.738;2024-03-02T09:47:52;26.45;;;13.88;;
25249;SDS011;13201;51.148;13.738;2024-03-02T09:50:18;30.15;;;16.42;;
25249;SDS011;13201;51.148;13.738;2024-03-02T09:52:43;25.23;;;14.23;;
25249;SDS011;13201;51.148;13.738;2024-03-02T09:55:13;24.75;;;13.32;;
25249;SDS011;13201;51.148;13.738;2024-03-02T09:57:40;24.83;;;13.82;;
25249;SDS011;13201;51.148;13.738;2024-03-02T10:00:07;34.30;;;17.40;;
25249;SDS011;13201;51.148;13.738;2024-03-02T10:02:33;34.33;;;19.85;;
25249;SDS011;13201;51.148;13.738;2024-03-02T10:04:59;33.00;;;19.38;;
25249;SDS011;13201;51.148;13.738;2024-03-02T10:07:25;24.77;;;14.73;;
25249;SDS011;13201;51.148;13.738;2024-03-02T10:09:50;22.83;;;13.43;;
25249;SDS011;13201;51.148;13.738;2024-03-02T10:12:17;24.50;;;13.13;;
25249;SDS011;13201;51.148;13.738;2024-03-02T10:14:43;21.23;;;12.77;;
25249;SDS011;13201;51.148;13.738;2024-03-02T10:17:13;24.40;;;13.23;;
25249;SDS011;13201;51.148;13.738;2024-03-02T10:19:40;22.63;;;13.20;;
25249;SDS011;13201;51.148;13.738;2024-03-02T10:22:07;24.13;;;13.60;;
25249;SDS011;13201;51.148;13.738;2024-03-02T10:24:43;29.85;;;19.40;;
25249;SDS011;13201;51.148;13.738;2024-03-02T10:29:42;23.95;;;12.57;;
25249;SDS011;13201;51.148;13.738;2024-03-02T10:32:11;26.15;;;12.88;;
25249;SDS011;13201;51.148;13.738;2024-03-02T10:34:38;24.75;;;14.13;;
25249;SDS011;13201;51.148;13.738;2024-03-02T10:37:05;27.65;;;14.75;;
25249;SDS011;13201;51.148;13.738;2024-03-02T10:39:32;25.67;;;14.82;;
25249;SDS011;13201;51.148;13.738;2024-03-02T10:42:00;25.83;;;14.70;;
25249;SDS011;13201;51.148;13.738;2024-03-02T10:44:28;26.13;;;14.52;;
25249;SDS011;13201;51.148;13.738;2024-03-02T10:46:55;30.92;;;15.25;;
25249;SDS011;13201;51.148;13.738;2024-03-02T10:49:22;25.00;;;14.15;;
25249;SDS011;13201;51.148;13.738;2024-03-02T10:51:51;22.30;;;13.63;;
25249;SDS011;13201;51.148;13.738;2024-03-02T10:54:17;24.45;;;13.00;;
25249;SDS011;13201;51.148;13.738;2024-03-02T10:56:44;24.60;;;13.48;;
25249;SDS011;13201;51.148;13.738;2024-03-02T11:02:01;23.88;;;13.07;;
25249;SDS011;13201;51.148;13.738;2024-03-02T11:04:28;26.98;;;13.15;;
25249;SDS011;13201;51.148;13.738;2024-03-02T11:07:04;26.38;;;13.00;;
25249;SDS011;13201;51.148;13.738;2024-03-02T11:09:35;28.30;;;13.15;;
25249;SDS011;13201;51.148;13.738;2024-03-02T11:12:25;23.05;;;13.05;;
25249;SDS011;13201;51.148;13.738;2024-03-02T11:14:58;23.30;;;12.77;;
25249;SDS011;13201;51.148;13.738;2024-03-02T11:19:51;25.50;;;13.63;;
25249;SDS011;13201;51.148;13.738;2024-03-02T11:22:17;23.35;;;14.10;;
25249;SDS011;13201;51.148;13.738;2024-03-02T11:24:50;25.13;;;13.47;;
25249;SDS011;13201;51.148;13.738;2024-03-02T11:32:58;22.38;;;12.93;;
25249;SDS011;13201;51.148;13.738;2024-03-02T11:35:37;23.48;;;12.75;;
25249;SDS011;13201;51.148;13.738;2024-03-02T11:38:29;26.95;;;12.10;;
25249;SDS011;13201;51.148;13.738;2024-03-02T11:40:57;25.80;;;12.75;;
25249;SDS011;13201;51.148;13.738;2024-03-02T11:43:25;25.67;;;13.43;;
25249;SDS011;13201;51.148;13.738;2024-03-02T11:45:59;25.27;;;13.38;;
25249;SDS011;13201;51.148;13.738;2024-03-02T11:48:26;25.95;;;12.25;;
25249;SDS011;13201;51.148;13.738;2024-03-02T11:50:52;22.63;;;12.65;;
25249;SDS011;13201;51.148;13.738;2024-03-02T11:53:19;26.17;;;12.63;;
25249;SDS011;13201;51.148;13.738;2024-03-02T11:55:45;22.65;;;12.02;;
25249;SDS011;13201;51.148;13.738;2024-03-02T11:58:12;21.17;;;11.27;;
25249;SDS011;13201;51.148;13.738;2024-03-02T12:00:39;19.17;;;11.55;;
25249;SDS011;13201;51.148;13.738;2024-03-02T12:05:31;21.80;;;12.85;;
25249;SDS011;13201;51.148;13.738;2024-03-02T12:07:58;20.00;;;11.47;;
25249;SDS011;13201;51.148;13.738;2024-03-02T12:10:25;19.60;;;10.32;;
25249;SDS011;13201;51.148;13.738;2024-03-02T12:12:57;25.88;;;10.82;;
25249;SDS011;13201;51.148;13.738;2024-03-02T12:15:25;19.80;;;10.73;;
25249;SDS011;13201;51.148;13.738;2024-03-02T12:17:55;23.42;;;10.60;;
25249;SDS011;13201;51.148;13.738;2024-03-02T12:20:22;18.98;;;10.93;;
25249;SDS011;13201;51.148;13.738;2024-03-02T12:22:52;20.65;;;11.20;;
25249;SDS011;13201;51.148;13.738;2024-03-02T12:25:19;23.88;;;12.02;;
25249;SDS011;13201;51.148;13.738;2024-03-02T12:27:46;24.42;;;11.40;;
25249;SDS011;13201;51.148;13.738;2024-03-02T12:30:14;23.08;;;12.23;;
25249;SDS011;13201;51.148;13.738;2024-03-02T12:32:41;26.75;;;12.60;;
25249;SDS011;13201;51.148;13.738;2024-03-02T12:35:07;23.17;;;11.95;;
25249;SDS011;13201;51.148;13.738;2024-03-02T12:37:33;19.33;;;11.27;;
25249;SDS011;13201;51.148;13.738;2024-03-02T12:40:09;20.15;;;11.40;;
25249;SDS011;13201;51.148;13.738;2024-03-02T12:42:39;20.80;;;10.65;;
25249;SDS011;13201;51.148;13.738;2024-03-02T12:45:06;16.67;;;10.82;;
25249;SDS011;13201;51.148;13.738;2024-03-02T12:47:33;18.95;;;10.90;;
25249;SDS011;13201;51.148;13.738;2024-03-02T12:49:59;25.25;;;11.80;;
25249;SDS011;13201;51.148;13.738;2024-03-02T12:52:26;20.47;;;12.37;;
25249;SDS011;13201;51.148;13.738;2024-03-02T12:54:51;22.98;;;11.82;;
25249;SDS011;13201;51.148;13.738;2024-03-02T12:57:20;23.03;;;11.83;;
25249;SDS011;13201;51.148;13.738;2024-03-02T12:59:46;22.92;;;11.43;;
25249;SDS011;13201;51.148;13.738;2024-03-02T13:02:19;23.17;;;11.90;;
25249;SDS011;13201;51.148;13.738;2024-03-02T13:04:51;21.35;;;11.98;;
25249;SDS011;13201;51.148;13.738;2024-03-02T13:07:19;25.88;;;12.45;;
25249;SDS011;13201;51.148;13.738;2024-03-02T13:09:46;22.65;;;11.60;;
25249;SDS011;13201;51.148;13.738;2024-03-02T13:12:12;23.83;;;12.90;;
25249;SDS011;13201;51.148;13.738;2024-03-02T13:14:43;27.73;;;13.55;;
25249;SDS011;13201;51.148;13.738;2024-03-02T13:17:09;28.38;;;13.15;;
25249;SDS011;13201;51.148;13.738;2024-03-02T13:19:34;30.40;;;14.27;;
25249;SDS011;13201;51.148;13.738;2024-03-02T13:22:00;26.58;;;13.50;;
25249;SDS011;13201;51.148;13.738;2024-03-02T13:24:29;28.10;;;13.48;;
25249;SDS011;13201;51.148;13.738;2024-03-02T13:26:56;25.38;;;13.52;;
25249;SDS011;13201;51.148;13.738;2024-03-02T13:29:23;23.13;;;12.57;;
25249;SDS011;13201;51.148;13.738;2024-03-02T13:31:49;25.27;;;13.10;;
25249;SDS011;13201;51.148;13.738;2024-03-02T13:34:15;29.13;;;14.07;;
25249;SDS011;13201;51.148;13.738;2024-03-02T13:36:41;29.98;;;14.07;;
25249;SDS011;13201;51.148;13.738;2024-03-02T13:39:07;23.58;;;13.20;;
25249;SDS011;13201;51.148;13.738;2024-03-02T13:41:35;25.17;;;12.80;;
25249;SDS011;13201;51.148;13.738;2024-03-02T13:44:01;25.87;;;12.07;;
25249;SDS011;13201;51.148;13.738;2024-03-02T13:46:27;22.90;;;11.90;;
25249;SDS011;13201;51.148;13.738;2024-03-02T13:48:53;22.95;;;10.82;;
25249;SDS011;13201;51.148;13.738;2024-03-02T13:51:19;22.38;;;10.57;;
25249;SDS011;13201;51.148;13.738;2024-03-02T13:53:45;18.60;;;10.73;;
25249;SDS011;13201;51.148;13.738;2024-03-02T13:56:11;22.13;;;10.85;;
25249;SDS011;13201;51.148;13.738;2024-03-02T13:58:37;20.30;;;10.30;;
25249;SDS011;13201;51.148;13.738;2024-03-02T14:01:03;20.33;;;10.20;;
25249;SDS011;13201;51.148;13.738;2024-03-02T14:03:30;20.67;;;10.30;;
25249;SDS011;13201;51.148;13.738;2024-03-02T14:05:56;23.53;;;11.83;;
25249;SDS011;13201;51.148;13.738;2024-03-02T14:08:22;23.57;;;11.77;;
25249;SDS011;13201;51.148;13.738;2024-03-02T14:10:48;22.83;;;11.85;;
25249;SDS011;13201;51.148;13.738;2024-03-02T14:13:14;22.45;;;12.07;;
25249;SDS011;13201;51.148;13.738;2024-03-02T14:15:40;20.95;;;11.27;;
25249;SDS011;13201;51.148;13.738;2024-03-02T14:18:07;23.30;;;12.40;;
25249;SDS011;13201;51.148;13.738;2024-03-02T14:20:35;22.00;;;12.18;;
25249;SDS011;13201;51.148;13.738;2024-03-02T14:23:00;21.85;;;11.60;;
25249;SDS011;13201;51.148;13.738;2024-03-02T14:25:28;23.08;;;11.77;;
25249;SDS011;13201;51.148;13.738;2024-03-02T14:27:56;24.63;;;13.38;;
25249;SDS011;13201;51.148;13.738;2024-03-02T14:30:23;39.72;;;21.85;;
25249;SDS011;13201;51.148;13.738;2024-03-02T14:32:48;24.10;;;10.23;;
25249;SDS011;13201;51.148;13.738;2024-03-02T14:35:14;23.90;;;10.65;;
25249;SDS011;13201;51.148;13.738;2024-03-02T14:37:40;26.88;;;10.05;;
25249;SDS011;13201;51.148;13.738;2024-03-02T14:40:06;20.27;;;10.13;;
25249;SDS011;13201;51.148;13.738;2024-03-02T14:42:34;21.55;;;10.75;;
25249;SDS011;13201;51.148;13.738;2024-03-02T14:45:00;21.90;;;10.60;;
25249;SDS011;13201;51.148;13.738;2024-03-02T14:47:28;23.30;;;10.50;;
25249;SDS011;13201;51.148;13.738;2024-03-02T14:49:55;20.50;;;10.70;;
25249;SDS011;13201;51.148;13.738;2024-03-02T14:52:20;18.70;;;10.52;;
25249;SDS011;13201;51.148;13.738;2024-03-02T14:54:46;24.95;;;10.43;;
25249;SDS011;13201;51.148;13.738;2024-03-02T14:57:12;24.65;;;10.65;;
25249;SDS011;13201;51.148;13.738;2024-03-02T14:59:38;18.43;;;10.60;;
25249;SDS011;13201;51.148;13.738;2024-03-02T15:02:04;24.05;;;11.93;;
25249;SDS011;13201;51.148;13.738;2024-03-02T15:04:31;24.77;;;11.43;;